Time;durP1;ratioP1;P1;durP2;ratioP2;P2;SDS_P1;SDS_P2;PMS_P1;PMS_P2;Temp;Humidity;BMP_temperature;BMP_pressure;BME280_temperature;BME280_humidity;BME280_pressure;Samples;Min_cycle;Max_cycle;Signal;HPM_P1;HPM_P2
2023/08/07 00:00:41;;;;;;;8.13;1.92;;;15.90;89.60;;;;;;5093522;28;20508;-80
2023/08/07 00:03:07;;;;;;;8.95;2.15;;;15.90;89.60;;;;;;5093674;28;20044;-79
2023/08/07 00:05:33;;;;;;;8.95;2.60;;;15.90;89.80;;;;;;5093753;28;20041;-80
2023/08/07 00:07:59;;;;;;;10.52;2.60;;;15.80;89.90;;;;;;5076558;28;20491;-80
2023/08/07 00:10:24;;;;;;;14.70;2.78;;;15.80;90.20;;;;;;5076451;28;20070;-80
2023/08/07 00:12:50;;;;;;;14.07;3.28;;;15.90;90.40;;;;;;5076418;28;20051;-80
2023/08/07 00:15:16;;;;;;;10.02;3.30;;;15.80;90.60;;;;;;5093499;28;20050;-80
2023/08/07 00:17:42;;;;;;;8.75;3.58;;;15.90;90.60;;;;;;5076305;28;20073;-79
2023/08/07 00:20:08;;;;;;;7.70;2.60;;;15.80;90.50;;;;;;5093136;28;20096;-79
2023/08/07 00:22:34;;;;;;;7.38;2.35;;;15.80;90.50;;;;;;5076181;28;20040;-79
2023/08/07 00:24:59;;;;;;;13.02;3.30;;;15.80;90.20;;;;;;5092860;28;20048;-79
2023/08/07 00:27:25;;;;;;;10.10;2.63;;;15.80;89.80;;;;;;5076381;28;20048;-79
2023/08/07 00:29:51;;;;;;;16.50;3.20;;;15.70;89.90;;;;;;5076110;28;20484;-80
2023/08/07 00:32:17;;;;;;;9.23;2.35;;;15.70;89.80;;;;;;5076447;28;20048;-80
2023/08/07 00:34:43;;;;;;;7.03;2.47;;;15.70;89.60;;;;;;5075900;28;20505;-77
2023/08/07 00:37:08;;;;;;;10.15;2.70;;;15.60;89.70;;;;;;5092817;28;20126;-77
2023/08/07 00:39:34;;;;;;;12.43;2.53;;;15.60;89.60;;;;;;5092721;28;20040;-76
2023/08/07 00:42:00;;;;;;;14.50;3.60;;;15.60;89.70;;;;;;5092748;28;20043;-77
2023/08/07 00:44:25;;;;;;;8.07;2.35;;;15.60;89.80;;;;;;5059222;28;20392;-77
2023/08/07 00:46:51;;;;;;;9.05;2.92;;;15.50;90.00;;;;;;5075815;28;20043;-78
2023/08/07 00:49:20;;;;;;;12.25;3.40;;;15.50;90.00;;;;;;5092519;28;20071;-79
2023/08/07 00:51:46;;;;;;;12.20;3.03;;;15.50;90.10;;;;;;5092578;28;20063;-78
2023/08/07 00:54:15;;;;;;;10.57;3.15;;;15.50;90.20;;;;;;5075456;28;20044;-78
2023/08/07 00:56:41;;;;;;;9.35;2.50;;;15.50;90.40;;;;;;5092702;28;20089;-77
2023/08/07 00:59:07;;;;;;;12.25;2.50;;;15.50;90.50;;;;;;5092321;28;20047;-78
2023/08/07 01:01:33;;;;;;;12.88;3.78;;;15.50;90.60;;;;;;5075419;28;20120;-77
2023/08/07 01:03:59;;;;;;;10.77;2.72;;;15.50;90.70;;;;;;5075519;28;20044;-79
2023/08/07 01:06:24;;;;;;;17.88;4.03;;;15.40;90.90;;;;;;5092608;28;20040;-79
2023/08/07 01:08:50;;;;;;;12.70;3.05;;;15.40;90.80;;;;;;5075317;28;20438;-78
2023/08/07 01:11:44;;;;;;;14.95;3.83;;;15.30;91.00;;;;;;5092214;28;20047;-79
2023/08/07 01:14:28;;;;;;;8.98;2.90;;;15.30;91.20;;;;;;5092529;28;20063;-79
2023/08/07 01:17:05;;;;;;;10.60;3.15;;;15.30;91.50;;;;;;5092449;28;20071;-78
2023/08/07 01:19:31;;;;;;;19.55;4.28;;;15.30;91.40;;;;;;5092349;28;20493;-79
2023/08/07 01:22:17;;;;;;;12.65;3.63;;;15.20;91.70;;;;;;5091982;28;20051;-78
2023/08/07 01:24:48;;;;;;;7.60;3.22;;;15.20;91.80;;;;;;5075127;28;20079;-79
2023/08/07 01:27:19;;;;;;;12.55;3.25;;;15.20;92.10;;;;;;5075299;28;20131;-78
2023/08/07 01:30:10;;;;;;;10.18;3.03;;;15.20;92.30;;;;;;5091872;28;20052;-79
2023/08/07 01:32:54;;;;;;;15.30;3.42;;;15.20;92.30;;;;;;5091940;28;20072;-77
2023/08/07 01:35:26;;;;;;;12.55;3.65;;;15.10;92.30;;;;;;5091986;28;20040;-79
2023/08/07 01:37:54;;;;;;;12.40;2.97;;;15.10;92.40;;;;;;5075125;28;20074;-78
2023/08/07 01:40:21;;;;;;;11.70;4.20;;;15.10;92.40;;;;;;5074847;28;20040;-77
2023/08/07 01:42:47;;;;;;;14.07;2.88;;;15.10;92.50;;;;;;5074928;28;20040;-79
2023/08/07 01:45:13;;;;;;;20.15;3.17;;;15.10;92.50;;;;;;5075055;28;20130;-79
2023/08/07 01:47:39;;;;;;;12.90;3.88;;;15.00;92.60;;;;;;5074532;28;20040;-77
2023/08/07 01:50:06;;;;;;;12.48;3.22;;;15.00;92.60;;;;;;5075132;28;20380;-77
2023/08/07 01:52:32;;;;;;;8.68;2.72;;;15.00;92.60;;;;;;5091699;28;20040;-79
2023/08/07 01:54:58;;;;;;;12.35;2.97;;;15.00;92.70;;;;;;5075198;28;20036;-79
2023/08/07 01:57:25;;;;;;;8.80;3.35;;;15.00;92.60;;;;;;5074874;28;20488;-79
2023/08/07 01:59:52;;;;;;;15.00;3.30;;;15.00;92.60;;;;;;5074905;28;20047;-78
2023/08/07 02:02:17;;;;;;;8.18;2.28;;;14.90;92.60;;;;;;5074651;28;20056;-79
2023/08/07 02:04:43;;;;;;;17.70;3.60;;;15.00;92.50;;;;;;5074807;28;20032;-79
2023/08/07 02:07:09;;;;;;;11.65;2.75;;;14.90;92.30;;;;;;5074746;28;20052;-78
2023/08/07 02:09:34;;;;;;;10.35;3.05;;;14.90;92.40;;;;;;5074909;28;20051;-78
2023/08/07 02:12:01;;;;;;;12.43;2.65;;;14.80;92.60;;;;;;5058173;28;20495;-77
2023/08/07 02:14:27;;;;;;;11.90;3.13;;;14.80;92.40;;;;;;5091559;28;20083;-78
2023/08/07 02:16:52;;;;;;;11.27;3.33;;;14.80;92.50;;;;;;5091504;28;20071;-78
2023/08/07 02:19:18;;;;;;;9.65;2.88;;;14.80;92.40;;;;;;5074653;28;20044;-78
2023/08/07 02:21:44;;;;;;;15.23;3.67;;;14.80;92.50;;;;;;5074490;28;20093;-78
2023/08/07 02:24:09;;;;;;;13.05;3.67;;;14.70;92.50;;;;;;5074596;28;20047;-79
2023/08/07 02:26:35;;;;;;;12.77;3.55;;;14.80;92.60;;;;;;5074520;28;20135;-77
2023/08/07 02:29:02;;;;;;;9.82;2.92;;;14.90;92.50;;;;;;5091556;28;20093;-79
2023/08/07 02:31:28;;;;;;;12.85;2.90;;;14.90;92.50;;;;;;5091392;28;20048;-79
2023/08/07 02:33:54;;;;;;;5.88;2.05;;;14.90;92.40;;;;;;5091643;28;20040;-78
2023/08/07 02:36:19;;;;;;;5.82;2.05;;;15.00;92.40;;;;;;5074482;28;20040;-78
2023/08/07 02:38:45;;;;;;;6.78;3.00;;;15.00;92.40;;;;;;5074305;28;20404;-78
2023/08/07 02:41:11;;;;;;;6.43;2.45;;;15.00;92.20;;;;;;5057719;28;20040;-79
2023/08/07 02:43:36;;;;;;;5.55;2.70;;;15.00;92.20;;;;;;5058096;28;20154;-79
2023/08/07 02:46:02;;;;;;;6.60;2.10;;;15.10;92.30;;;;;;5091432;28;20485;-79
2023/08/07 02:48:28;;;;;;;10.80;3.63;;;15.10;92.20;;;;;;5074532;28;20488;-79
2023/08/07 02:50:53;;;;;;;5.43;2.10;;;15.20;92.10;;;;;;5074301;28;20491;-79
2023/08/07 02:53:19;;;;;;;11.93;4.07;;;15.20;92.40;;;;;;5091416;28;20036;-81
2023/08/07 02:55:45;;;;;;;12.63;3.55;;;15.30;92.20;;;;;;5091163;28;20090;-78
2023/08/07 02:58:10;;;;;;;12.05;4.05;;;15.20;92.30;;;;;;5092278;28;20055;-80
2023/08/07 03:00:36;;;;;;;17.23;5.13;;;15.20;92.50;;;;;;5077896;28;20042;-80
2023/08/07 03:03:02;;;;;;;21.27;4.78;;;15.30;92.80;;;;;;5094745;28;20047;-81
2023/08/07 03:05:28;;;;;;;19.05;4.57;;;15.30;93.10;;;;;;5061503;28;20411;-79
2023/08/07 03:07:53;;;;;;;17.85;5.03;;;15.30;93.30;;;;;;5094682;28;20434;-80
2023/08/07 03:10:19;;;;;;;19.00;4.68;;;15.30;93.30;;;;;;5094486;28;20043;-79
2023/08/07 03:12:45;;;;;;;18.60;5.10;;;15.30;93.40;;;;;;5077633;28;20044;-81
2023/08/07 03:15:11;;;;;;;16.33;4.50;;;15.30;93.40;;;;;;5094484;28;20126;-80
2023/08/07 03:17:36;;;;;;;13.00;4.07;;;15.30;93.30;;;;;;5061260;28;20040;-80
2023/08/07 03:20:03;;;;;;;13.32;3.58;;;15.30;93.20;;;;;;5077675;28;20456;-80
2023/08/07 03:22:29;;;;;;;9.70;3.90;;;15.20;93.20;;;;;;5094278;28;20047;-80
2023/08/07 03:24:55;;;;;;;24.42;4.65;;;15.30;93.00;;;;;;5077260;28;20052;-79
2023/08/07 03:27:21;;;;;;;14.02;3.97;;;15.30;92.60;;;;;;5077481;28;20074;-80
2023/08/07 03:29:47;;;;;;;17.17;4.45;;;15.20;92.60;;;;;;5077212;28;20513;-79
2023/08/07 03:32:13;;;;;;;15.88;4.25;;;15.20;92.50;;;;;;5094215;28;20044;-79
2023/08/07 03:34:38;;;;;;;16.58;4.43;;;15.20;92.40;;;;;;5093933;28;20185;-79
2023/08/07 03:37:04;;;;;;;12.52;4.15;;;15.20;92.40;;;;;;5077267;28;20038;-79
2023/08/07 03:39:30;;;;;;;14.88;4.63;;;15.20;92.20;;;;;;5077048;28;20063;-78
2023/08/07 03:41:55;;;;;;;18.30;4.43;;;15.20;92.20;;;;;;5060579;28;20040;-78
2023/08/07 03:44:21;;;;;;;18.88;3.97;;;15.20;92.20;;;;;;5093849;28;20039;-78
2023/08/07 03:46:47;;;;;;;16.73;4.22;;;15.20;92.00;;;;;;5077027;28;20139;-79
2023/08/07 03:49:12;;;;;;;14.98;3.50;;;15.20;92.10;;;;;;5076877;28;20043;-79
2023/08/07 03:51:38;;;;;;;11.65;3.40;;;15.20;92.30;;;;;;5093890;28;20048;-78
2023/08/07 03:54:04;;;;;;;11.60;3.80;;;15.20;92.30;;;;;;5060487;28;20071;-78
2023/08/07 03:56:36;;;;;;;7.97;2.97;;;15.20;92.30;;;;;;5060206;28;20400;-78
2023/08/07 03:59:04;;;;;;;8.68;3.00;;;15.20;92.30;;;;;;5076715;28;20044;-79
2023/08/07 04:01:30;;;;;;;11.60;3.00;;;15.20;92.00;;;;;;5076565;28;20050;-79
2023/08/07 04:03:55;;;;;;;8.93;3.63;;;15.10;92.10;;;;;;5093649;28;20036;-79
2023/08/07 04:06:21;;;;;;;10.88;3.85;;;15.00;92.30;;;;;;5093491;28;20032;-79
2023/08/07 04:08:47;;;;;;;10.02;3.20;;;15.00;92.40;;;;;;5093455;28;20079;-80
2023/08/07 04:11:13;;;;;;;10.45;3.30;;;15.00;92.60;;;;;;5075819;28;20040;-80
2023/08/07 04:13:39;;;;;;;11.82;4.25;;;15.00;92.80;;;;;;5075609;28;20408;-80
2023/08/07 04:16:05;;;;;;;12.85;4.10;;;15.00;92.90;;;;;;5092636;28;20422;-80
2023/08/07 04:18:34;;;;;;;18.42;4.45;;;15.00;93.00;;;;;;5076379;28;20040;-81
2023/08/07 04:21:00;;;;;;;21.00;4.15;;;15.00;93.20;;;;;;5076327;28;20036;-79
2023/08/07 04:23:27;;;;;;;9.27;3.17;;;15.00;93.50;;;;;;5060162;28;20048;-80
2023/08/07 04:25:54;;;;;;;15.40;4.97;;;15.00;93.60;;;;;;5059615;28;20547;-80
2023/08/07 04:28:20;;;;;;;17.80;3.42;;;15.00;93.40;;;;;;5093031;28;20043;-80
2023/08/07 04:30:53;;;;;;;13.10;4.18;;;15.00;93.20;;;;;;5076095;28;20040;-78
2023/08/07 04:33:20;;;;;;;15.25;4.05;;;15.00;93.20;;;;;;5093004;28;20085;-79
2023/08/07 04:35:46;;;;;;;16.15;5.00;;;15.00;92.90;;;;;;5059979;28;20071;-79
2023/08/07 04:38:13;;;;;;;12.13;3.45;;;14.90;92.50;;;;;;5076055;28;20221;-79
2023/08/07 04:40:47;;;;;;;15.07;4.05;;;15.00;92.00;;;;;;5093120;28;20067;-79
2023/08/07 04:43:14;;;;;;;10.07;3.17;;;14.90;92.00;;;;;;5076025;28;20131;-79
2023/08/07 04:45:41;;;;;;;13.05;5.57;;;14.90;92.10;;;;;;5092887;28;20039;-79
2023/08/07 04:48:09;;;;;;;14.07;3.88;;;14.90;91.80;;;;;;5075922;28;20076;-79
2023/08/07 04:50:35;;;;;;;14.30;4.38;;;14.90;91.60;;;;;;5059311;28;20127;-78
2023/08/07 04:53:01;;;;;;;11.57;3.58;;;14.90;91.30;;;;;;5092785;28;20119;-79
2023/08/07 04:55:26;;;;;;;16.60;4.20;;;14.90;91.20;;;;;;5092895;28;20040;-79
2023/08/07 04:57:54;;;;;;;14.38;4.05;;;14.90;91.00;;;;;;5092893;28;20093;-78
2023/08/07 05:00:21;;;;;;;10.05;3.80;;;14.90;90.70;;;;;;5076035;28;20043;-77
2023/08/07 05:02:48;;;;;;;21.42;4.63;;;14.90;90.70;;;;;;5075641;28;20114;-80
2023/08/07 05:05:14;;;;;;;14.55;4.30;;;14.90;90.50;;;;;;5092802;28;20369;-80
2023/08/07 05:07:41;;;;;;;14.57;4.00;;;14.90;90.50;;;;;;5092579;28;20051;-78
2023/08/07 05:10:07;;;;;;;17.35;4.47;;;14.90;90.50;;;;;;5075734;28;20388;-78
2023/08/07 05:12:33;;;;;;;14.82;4.68;;;15.00;90.60;;;;;;5091967;28;20078;-77
2023/08/07 05:14:59;;;;;;;10.65;3.95;;;14.90;90.40;;;;;;5075179;28;20071;-78
2023/08/07 05:17:24;;;;;;;15.90;4.35;;;15.00;90.50;;;;;;5058808;28;20039;-78
2023/08/07 05:19:50;;;;;;;14.02;3.58;;;15.00;90.70;;;;;;5075534;28;20044;-80
2023/08/07 05:22:16;;;;;;;11.20;4.32;;;15.00;90.50;;;;;;5074475;28;20492;-78
2023/08/07 05:24:43;;;;;;;16.08;3.83;;;15.00;90.20;;;;;;5092266;28;20074;-77
2023/08/07 05:27:09;;;;;;;10.10;4.03;;;15.10;89.30;;;;;;5092048;28;20215;-77
2023/08/07 05:29:43;;;;;;;10.50;3.25;;;15.00;89.10;;;;;;5091944;28;20036;-82
2023/08/07 05:32:12;;;;;;;12.98;3.90;;;15.10;88.90;;;;;;5088707;28;20488;-82
2023/08/07 05:34:38;;;;;;;20.13;5.93;;;15.10;88.80;;;;;;5091585;28;20036;-80
2023/08/07 05:37:05;;;;;;;14.45;3.67;;;15.10;88.80;;;;;;5091350;28;20043;-81
2023/08/07 05:39:30;;;;;;;11.55;3.45;;;15.20;88.80;;;;;;5091810;28;20395;-78
2023/08/07 05:41:57;;;;;;;12.98;3.80;;;15.10;88.80;;;;;;5058323;28;20040;-81
2023/08/07 05:44:24;;;;;;;12.48;3.92;;;15.20;88.90;;;;;;5058916;28;20071;-79
2023/08/07 05:46:50;;;;;;;14.57;4.97;;;15.30;88.90;;;;;;5074950;28;20104;-81
2023/08/07 05:49:15;;;;;;;20.02;4.93;;;15.20;88.80;;;;;;5075267;28;20036;-81
2023/08/07 05:51:41;;;;;;;16.25;4.30;;;15.20;89.00;;;;;;5091905;28;20071;-81
2023/08/07 05:54:07;;;;;;;14.80;4.85;;;15.20;89.10;;;;;;5074929;28;20040;-80
2023/08/07 05:56:33;;;;;;;13.07;4.80;;;15.20;89.30;;;;;;5074856;28;20122;-81
2023/08/07 05:58:59;;;;;;;13.70;3.67;;;15.20;88.90;;;;;;5074839;28;20051;-80
2023/08/07 06:01:30;;;;;;;11.15;3.83;;;15.20;88.10;;;;;;5092006;28;20043;-80
2023/08/07 06:03:58;;;;;;;14.45;3.58;;;15.30;88.10;;;;;;5091710;28;20119;-80
2023/08/07 06:06:27;;;;;;;7.10;2.53;;;15.20;88.00;;;;;;5058059;28;20042;-79
2023/08/07 06:08:56;;;;;;;11.18;3.15;;;15.20;88.00;;;;;;5075090;28;20032;-79
2023/08/07 06:11:22;;;;;;;15.02;3.28;;;15.30;87.60;;;;;;5091581;28;20164;-77
2023/08/07 06:13:48;;;;;;;13.02;3.00;;;15.30;87.70;;;;;;5091582;28;20048;-79
2023/08/07 06:16:14;;;;;;;8.95;2.92;;;15.30;87.90;;;;;;5091618;28;20093;-79
2023/08/07 06:18:40;;;;;;;15.50;3.05;;;15.30;87.70;;;;;;5057978;28;20040;-77
2023/08/07 06:21:06;;;;;;;10.15;2.83;;;15.30;87.60;;;;;;5091818;28;20055;-79
2023/08/07 06:23:35;;;;;;;8.98;2.85;;;15.30;87.50;;;;;;5058014;28;20036;-79
2023/08/07 06:26:04;;;;;;;7.07;2.65;;;15.30;87.40;;;;;;5091334;28;20141;-79
2023/08/07 06:28:32;;;;;;;8.68;2.78;;;15.50;86.80;;;;;;5091626;28;20382;-77
2023/08/07 06:31:06;;;;;;;15.48;3.17;;;15.50;86.10;;;;;;5091683;28;20063;-80
2023/08/07 06:33:33;;;;;;;8.82;2.92;;;15.50;86.20;;;;;;5076702;28;20094;-79
2023/08/07 06:35:58;;;;;;;11.05;3.33;;;15.50;86.20;;;;;;5095350;28;20039;-77
2023/08/07 06:38:24;;;;;;;8.32;2.97;;;15.60;86.00;;;;;;5095137;28;20036;-76
2023/08/07 06:40:50;;;;;;;10.95;2.95;;;15.70;85.90;;;;;;5095119;28;20043;-79
2023/08/07 06:43:15;;;;;;;8.68;2.38;;;15.80;85.70;;;;;;5095203;28;20093;-76
2023/08/07 06:45:41;;;;;;;9.68;3.40;;;15.80;85.60;;;;;;5056656;28;20423;-76
2023/08/07 06:48:07;;;;;;;8.95;2.50;;;15.80;85.50;;;;;;5069767;28;20048;-77
2023/08/07 06:50:32;;;;;;;7.80;2.78;;;15.80;84.80;;;;;;5087619;28;20131;-76
2023/08/07 06:52:58;;;;;;;6.25;2.10;;;15.80;84.20;;;;;;5071193;28;20048;-76
2023/08/07 06:55:24;;;;;;;7.03;2.13;;;15.80;84.10;;;;;;5086310;28;20123;-77
2023/08/07 06:57:50;;;;;;;12.73;2.92;;;15.50;84.80;;;;;;5087915;28;20393;-77
2023/08/07 07:00:16;;;;;;;10.23;3.45;;;15.30;85.80;;;;;;5053462;28;20055;-77
2023/08/07 07:02:41;;;;;;;9.38;2.97;;;15.00;87.30;;;;;;5087234;28;20461;-78
2023/08/07 07:05:07;;;;;;;12.55;3.65;;;14.90;88.00;;;;;;5069374;28;20121;-78
2023/08/07 07:07:33;;;;;;;14.32;3.55;;;14.90;88.70;;;;;;5070528;28;20040;-77
2023/08/07 07:10:00;;;;;;;11.68;4.13;;;14.90;88.80;;;;;;5053798;28;20050;-77
2023/08/07 07:12:27;;;;;;;9.13;3.45;;;14.90;88.80;;;;;;5087499;28;20055;-77
2023/08/07 07:14:53;;;;;;;7.90;2.95;;;14.90;88.70;;;;;;5069267;28;20044;-77
2023/08/07 07:17:18;;;;;;;7.38;2.50;;;14.90;88.40;;;;;;5087759;28;20048;-77
2023/08/07 07:19:44;;;;;;;10.27;2.97;;;15.00;87.70;;;;;;5086805;28;20504;-77
2023/08/07 07:22:10;;;;;;;8.95;2.63;;;15.10;87.40;;;;;;5086928;28;20055;-77
2023/08/07 07:24:36;;;;;;;9.20;2.28;;;15.40;87.40;;;;;;5085407;28;20618;-77
2023/08/07 07:27:01;;;;;;;8.48;3.03;;;15.60;87.20;;;;;;5087544;28;20032;-77
2023/08/07 07:29:27;;;;;;;7.78;2.63;;;15.70;86.00;;;;;;5086921;28;20843;-76
2023/08/07 07:31:54;;;;;;;7.80;3.17;;;15.80;84.70;;;;;;5052634;28;20071;-76
2023/08/07 07:34:20;;;;;;;8.15;2.85;;;16.00;84.20;;;;;;5068462;28;20059;-76
2023/08/07 07:36:46;;;;;;;4.53;2.03;;;16.00;83.50;;;;;;5086724;28;20052;-77
2023/08/07 07:39:12;;;;;;;7.05;1.80;;;15.80;82.20;;;;;;5086807;28;20416;-76
2023/08/07 07:41:37;;;;;;;8.30;2.58;;;15.60;82.70;;;;;;5086820;28;20036;-77
2023/08/07 07:44:03;;;;;;;7.95;2.50;;;15.40;83.50;;;;;;5069482;28;20039;-77
2023/08/07 07:46:31;;;;;;;7.45;2.63;;;15.30;84.00;;;;;;5084574;28;20500;-77
2023/08/07 07:48:57;;;;;;;7.20;2.85;;;15.20;84.50;;;;;;5081609;28;21003;-77
2023/08/07 07:51:23;;;;;;;8.70;2.88;;;15.20;85.00;;;;;;5069511;28;20044;-77
2023/08/07 07:53:49;;;;;;;8.98;2.85;;;15.20;84.90;;;;;;5064376;28;20047;-78
2023/08/07 07:56:14;;;;;;;7.45;2.53;;;15.30;84.80;;;;;;5085282;28;20059;-77
2023/08/07 07:58:40;;;;;;;10.25;2.63;;;15.40;85.10;;;;;;5096914;28;20040;-77
2023/08/07 08:01:07;;;;;;;7.55;2.50;;;15.40;85.40;;;;;;5073843;28;20051;-77
2023/08/07 08:03:33;;;;;;;7.95;3.40;;;15.40;85.30;;;;;;5100328;28;20036;-76
2023/08/07 08:05:59;;;;;;;11.65;2.83;;;15.40;85.20;;;;;;5117053;28;20040;-76
2023/08/07 08:08:25;;;;;;;8.80;3.13;;;15.50;85.60;;;;;;5099807;28;20046;-76
2023/08/07 08:10:51;;;;;;;6.30;2.53;;;15.50;84.80;;;;;;5108569;28;20024;-77
2023/08/07 08:13:17;;;;;;;9.52;2.97;;;15.70;82.20;;;;;;5093433;28;20069;-76
2023/08/07 08:15:44;;;;;;;8.80;3.00;;;15.80;79.10;;;;;;5105385;28;20048;-76
2023/08/07 08:18:11;;;;;;;6.28;2.30;;;16.00;78.10;;;;;;5105065;28;20138;-76
2023/08/07 08:20:37;;;;;;;7.75;2.65;;;16.10;76.20;;;;;;5105202;28;20143;-76
2023/08/07 08:23:04;;;;;;;10.10;2.45;;;16.30;76.40;;;;;;5102311;28;20044;-75
2023/08/07 08:25:31;;;;;;;6.75;2.47;;;16.40;73.60;;;;;;5100192;28;20139;-76
2023/08/07 08:27:56;;;;;;;8.32;3.53;;;16.50;73.60;;;;;;5084787;28;20139;-76
2023/08/07 08:30:22;;;;;;;5.45;2.20;;;16.60;75.00;;;;;;5101604;28;20063;-76
2023/08/07 08:32:48;;;;;;;9.60;3.00;;;16.70;73.60;;;;;;5096013;28;20039;-76
2023/08/07 08:35:14;;;;;;;6.70;2.40;;;16.80;74.20;;;;;;5090279;28;20570;-77
2023/08/07 08:37:40;;;;;;;7.22;2.33;;;16.80;72.30;;;;;;5093205;28;20056;-75
2023/08/07 08:40:08;;;;;;;7.80;3.20;;;16.90;72.70;;;;;;5104443;28;20063;-76
2023/08/07 08:42:34;;;;;;;11.02;2.92;;;17.00;73.30;;;;;;5068105;28;20052;-76
2023/08/07 08:45:02;;;;;;;10.15;2.67;;;17.10;69.90;;;;;;5104862;28;20047;-75
2023/08/07 08:47:31;;;;;;;3.97;1.80;;;17.10;69.30;;;;;;5106767;28;20036;-76
2023/08/07 08:50:18;;;;;;;4.53;2.25;;;17.10;68.30;;;;;;5088215;28;20100;-76
2023/08/07 08:52:45;;;;;;;9.27;2.60;;;17.20;66.10;;;;;;5103751;28;20081;-75
2023/08/07 08:55:13;;;;;;;9.07;2.25;;;17.40;67.30;;;;;;5103679;28;20036;-76
2023/08/07 08:57:40;;;;;;;7.55;2.88;;;17.40;66.00;;;;;;5069215;28;20052;-75
2023/08/07 09:00:15;;;;;;;11.75;3.13;;;17.50;67.00;;;;;;5083896;28;20052;-76
2023/08/07 09:02:45;;;;;;;6.78;2.70;;;17.50;67.50;;;;;;5088674;28;20172;-75
2023/08/07 09:05:11;;;;;;;5.75;2.10;;;17.50;68.90;;;;;;5084125;28;20056;-76
2023/08/07 09:07:37;;;;;;;8.63;2.67;;;17.50;69.20;;;;;;5084440;28;20499;-76
2023/08/07 09:10:04;;;;;;;10.55;2.58;;;17.50;68.10;;;;;;5051136;28;21062;-76
2023/08/07 09:12:32;;;;;;;7.60;2.88;;;17.30;69.70;;;;;;5084634;28;20075;-76
2023/08/07 09:15:01;;;;;;;5.00;2.70;;;17.20;68.90;;;;;;5077211;28;20507;-76
2023/08/07 09:17:31;;;;;;;8.63;2.28;;;17.00;68.20;;;;;;5083715;28;20058;-76
2023/08/07 09:19:58;;;;;;;7.70;2.28;;;17.00;67.60;;;;;;5079096;28;20040;-76
2023/08/07 09:22:24;;;;;;;7.03;2.42;;;17.00;68.60;;;;;;5084588;28;20407;-75
2023/08/07 09:24:50;;;;;;;6.93;2.60;;;17.00;69.00;;;;;;5083520;28;20093;-76
2023/08/07 09:27:16;;;;;;;10.10;2.63;;;17.00;69.40;;;;;;5068941;28;20090;-75
2023/08/07 09:29:43;;;;;;;8.85;2.67;;;17.20;69.60;;;;;;5085121;28;20768;-76
2023/08/07 09:32:12;;;;;;;7.00;2.38;;;17.30;68.90;;;;;;5084519;28;20135;-76
2023/08/07 09:34:42;;;;;;;6.22;2.00;;;17.50;68.40;;;;;;5083270;28;20040;-76
2023/08/07 09:37:08;;;;;;;5.40;1.58;;;17.50;68.60;;;;;;5084023;28;20569;-76
2023/08/07 09:39:35;;;;;;;7.28;2.03;;;17.50;67.50;;;;;;5067062;28;20059;-76
2023/08/07 09:42:02;;;;;;;7.75;2.72;;;17.30;66.90;;;;;;5083956;28;20048;-76
2023/08/07 09:44:38;;;;;;;9.23;2.67;;;17.20;69.20;;;;;;5083165;28;20473;-76
2023/08/07 09:47:13;;;;;;;8.73;2.60;;;17.10;69.20;;;;;;5084723;28;20157;-76
2023/08/07 09:49:39;;;;;;;8.00;2.75;;;17.10;69.70;;;;;;5085309;28;20577;-76
2023/08/07 09:52:10;;;;;;;9.55;2.42;;;17.00;69.80;;;;;;5085077;28;20040;-76
2023/08/07 09:54:36;;;;;;;8.90;2.58;;;17.00;70.60;;;;;;5083674;28;20048;-76
2023/08/07 09:57:03;;;;;;;7.60;2.95;;;17.20;71.60;;;;;;5068109;28;20036;-77
2023/08/07 09:59:29;;;;;;;8.05;2.75;;;17.50;71.90;;;;;;5084476;28;20040;-76
2023/08/07 10:01:55;;;;;;;5.95;2.08;;;17.70;71.20;;;;;;5083983;28;20048;-76
2023/08/07 10:04:22;;;;;;;8.82;3.65;;;17.90;67.80;;;;;;5066603;28;20048;-76
2023/08/07 10:06:48;;;;;;;9.73;2.65;;;17.90;67.00;;;;;;5068262;28;20048;-77
2023/08/07 10:09:14;;;;;;;5.47;1.95;;;17.90;66.00;;;;;;5087559;28;20082;-75
2023/08/07 10:11:41;;;;;;;8.38;2.17;;;17.90;65.90;;;;;;5054451;28;20488;-76
2023/08/07 10:14:09;;;;;;;7.30;2.20;;;17.80;65.90;;;;;;5087194;28;20052;-75
2023/08/07 10:16:39;;;;;;;5.95;1.98;;;17.70;65.70;;;;;;5088025;28;20055;-75
2023/08/07 10:19:05;;;;;;;5.88;2.15;;;17.70;66.00;;;;;;5087397;28;20156;-76
2023/08/07 10:21:34;;;;;;;4.57;2.05;;;17.80;66.00;;;;;;5087761;28;20039;-75
2023/08/07 10:24:03;;;;;;;6.63;2.20;;;17.90;65.90;;;;;;5082086;28;20582;-75
2023/08/07 10:26:29;;;;;;;4.15;2.60;;;18.00;67.50;;;;;;5069968;28;20505;-75
2023/08/07 10:28:56;;;;;;;7.78;2.10;;;18.00;66.50;;;;;;5087705;28;20395;-75
2023/08/07 10:31:23;;;;;;;6.25;1.90;;;18.00;64.90;;;;;;5088157;28;20044;-75
2023/08/07 10:33:49;;;;;;;8.00;2.03;;;18.10;65.50;;;;;;5092609;28;20492;-75
2023/08/07 10:36:17;;;;;;;10.07;2.60;;;18.20;65.20;;;;;;5095144;28;20039;-76
2023/08/07 10:38:43;;;;;;;4.45;1.80;;;18.10;65.00;;;;;;5095404;28;20032;-75
2023/08/07 10:41:12;;;;;;;6.43;1.70;;;18.10;65.10;;;;;;5095482;28;20040;-76
2023/08/07 10:43:43;;;;;;;7.15;2.00;;;18.30;64.30;;;;;;5095158;28;20036;-76
2023/08/07 10:46:15;;;;;;;4.43;1.67;;;18.40;64.30;;;;;;5095126;28;20523;-77
2023/08/07 10:48:43;;;;;;;6.07;2.10;;;18.50;65.30;;;;;;5078024;28;20043;-77
2023/08/07 10:51:13;;;;;;;7.60;1.90;;;18.50;64.40;;;;;;5078160;28;20511;-77
2023/08/07 10:53:45;;;;;;;7.13;2.47;;;18.40;65.20;;;;;;5095113;28;20052;-76
2023/08/07 10:56:28;;;;;;;4.63;1.85;;;18.40;64.50;;;;;;5094006;28;20032;-75
2023/08/07 10:58:54;;;;;;;5.00;1.48;;;18.50;64.00;;;;;;5077840;28;20042;-76
2023/08/07 11:01:26;;;;;;;4.40;2.10;;;18.70;63.40;;;;;;5094725;28;20128;-75
2023/08/07 11:03:56;;;;;;;9.40;2.28;;;18.70;64.80;;;;;;5094999;28;20032;-76
2023/08/07 11:06:31;;;;;;;7.30;2.40;;;18.60;64.90;;;;;;5094878;28;20040;-77
2023/08/07 11:08:57;;;;;;;6.97;1.85;;;18.40;65.80;;;;;;5094687;28;20039;-77
2023/08/07 11:11:23;;;;;;;6.65;2.55;;;18.40;65.60;;;;;;5094853;28;20050;-76
2023/08/07 11:13:49;;;;;;;8.73;2.05;;;18.40;65.70;;;;;;5077699;28;20040;-76
2023/08/07 11:16:16;;;;;;;6.50;2.00;;;18.30;65.50;;;;;;5094514;28;20032;-76
2023/08/07 11:18:43;;;;;;;7.65;2.33;;;18.30;67.40;;;;;;5094683;28;20123;-77
2023/08/07 11:21:12;;;;;;;7.80;2.03;;;18.20;66.80;;;;;;5094771;28;20055;-77
2023/08/07 11:23:39;;;;;;;8.35;2.63;;;18.20;67.20;;;;;;5077482;28;20044;-76
2023/08/07 11:26:05;;;;;;;5.32;1.70;;;18.40;67.90;;;;;;5094255;28;20522;-77
2023/08/07 11:28:31;;;;;;;7.22;2.20;;;18.40;68.20;;;;;;5077564;28;20073;-76
2023/08/07 11:30:57;;;;;;;7.10;2.35;;;18.10;67.90;;;;;;5077407;28;20036;-75
2023/08/07 11:33:25;;;;;;;4.53;1.98;;;18.00;68.50;;;;;;5094299;28;20055;-76
2023/08/07 11:35:51;;;;;;;6.93;2.28;;;17.80;70.30;;;;;;5094171;28;20040;-77
2023/08/07 11:38:38;;;;;;;9.85;3.10;;;17.50;72.00;;;;;;5094331;28;20391;-76
2023/08/07 11:41:06;;;;;;;6.82;2.17;;;17.40;74.10;;;;;;5077214;28;20048;-76
2023/08/07 11:43:33;;;;;;;9.00;2.25;;;17.20;76.50;;;;;;5094023;28;20127;-77
2023/08/07 11:46:01;;;;;;;7.53;2.70;;;16.90;77.50;;;;;;5093999;28;20179;-76
2023/08/07 11:48:28;;;;;;;7.82;2.80;;;16.90;78.70;;;;;;5093780;28;20491;-76
2023/08/07 11:50:54;;;;;;;7.97;2.15;;;16.70;80.00;;;;;;5094097;28;20044;-76
2023/08/07 11:53:21;;;;;;;7.32;2.30;;;16.70;80.80;;;;;;5094086;28;20051;-76
2023/08/07 11:56:00;;;;;;;8.90;2.10;;;16.90;80.30;;;;;;5094025;28;20039;-76
2023/08/07 11:58:27;;;;;;;6.50;1.95;;;17.00;78.60;;;;;;5093825;28;20040;-77
2023/08/07 12:00:54;;;;;;;6.72;2.20;;;17.20;77.70;;;;;;5077746;28;20040;-77
2023/08/07 12:03:28;;;;;;;7.95;2.33;;;17.10;77.00;;;;;;5064273;28;20036;-76
2023/08/07 12:05:56;;;;;;;6.13;2.53;;;17.10;76.90;;;;;;5086739;28;20041;-76
2023/08/07 12:08:22;;;;;;;8.95;2.38;;;17.00;77.70;;;;;;5073454;28;20554;-77
2023/08/07 12:10:54;;;;;;;5.93;2.25;;;16.90;78.50;;;;;;5073132;28;20036;-77
2023/08/07 12:13:25;;;;;;;6.03;2.13;;;17.10;79.10;;;;;;5073181;28;20048;-77
2023/08/07 12:15:55;;;;;;;7.60;2.28;;;17.50;77.70;;;;;;5073112;28;20508;-77
2023/08/07 12:18:23;;;;;;;10.07;2.83;;;17.50;76.80;;;;;;5065119;28;20480;-76
2023/08/07 12:21:12;;;;;;;5.25;2.67;;;17.80;76.80;;;;;;5056413;28;20063;-77
2023/08/07 12:23:37;;;;;;;6.22;2.47;;;18.00;75.60;;;;;;5072206;28;20057;-77
2023/08/07 12:26:07;;;;;;;6.57;2.40;;;18.30;74.90;;;;;;5056135;28;20063;-76
2023/08/07 12:28:36;;;;;;;3.30;2.15;;;18.40;71.70;;;;;;5072649;28;20553;-77
2023/08/07 12:31:03;;;;;;;8.27;2.78;;;18.40;68.30;;;;;;5072311;28;20048;-77
2023/08/07 12:33:31;;;;;;;4.03;2.17;;;18.40;69.60;;;;;;5075498;28;20044;-76
2023/08/07 12:35:58;;;;;;;5.65;1.83;;;18.50;70.00;;;;;;5093155;28;20036;-77
2023/08/07 12:38:24;;;;;;;5.85;1.75;;;18.70;64.60;;;;;;5093445;28;20145;-77
2023/08/07 12:40:50;;;;;;;8.00;1.95;;;18.90;66.60;;;;;;5093050;28;20551;-78
2023/08/07 12:43:16;;;;;;;10.18;2.85;;;18.80;68.10;;;;;;5092707;28;20048;-77